Time;durP1;ratioP1;P1;durP2;ratioP2;P2;SDS_P1;SDS_P2;PMS_P1;PMS_P2;Temp;Humidity;BMP_temperature;BMP_pressure;BME280_temperature;BME280_humidity;BME280_pressure;Samples;Min_cycle;Max_cycle;Signal;HPM_P1;HPM_P2
2021/10/22 00:00:48;;;;;;;10.77;2.00;;;;;;;;;;5039453;28;20033;-90
2021/10/22 00:03:13;;;;;;;9.55;1.77;;;;;;;;;;5039968;28;20013;-90
2021/10/22 00:05:38;;;;;;;15.18;2.83;;;;;;;;;;5039834;28;20029;-90
2021/10/22 00:08:04;;;;;;;15.43;2.30;;;;;;;;;;5039761;28;20021;-89
2021/10/22 00:10:29;;;;;;;17.38;2.88;;;;;;;;;;5039463;28;20032;-91
2021/10/22 00:12:55;;;;;;;18.27;2.17;;;;;;;;;;5039418;28;20098;-90
2021/10/22 00:15:21;;;;;;;14.02;2.30;;;;;;;;;;5057666;28;20013;-90
2021/10/22 00:17:47;;;;;;;14.90;2.22;;;;;;;;;;5039779;28;20109;-90
2021/10/22 00:20:12;;;;;;;14.90;2.20;;;;;;;;;;5057276;28;20107;-90
2021/10/22 00:22:38;;;;;;;12.13;2.22;;;;;;;;;;5039485;28;20017;-90
2021/10/22 00:25:04;;;;;;;13.82;2.53;;;;;;;;;;5039325;28;20430;-90
2021/10/22 00:27:29;;;;;;;17.42;2.50;;;;;;;;;;5039321;28;20017;-90
2021/10/22 00:29:55;;;;;;;23.50;3.55;;;;;;;;;;5058115;28;20051;-90
2021/10/22 00:32:20;;;;;;;13.23;2.55;;;;;;;;;;5040350;28;20094;-90
2021/10/22 00:34:45;;;;;;;19.70;3.22;;;;;;;;;;5039218;28;20799;-90
2021/10/22 00:37:11;;;;;;;17.40;3.53;;;;;;;;;;5039103;28;20032;-90
2021/10/22 00:39:36;;;;;;;15.95;3.70;;;;;;;;;;5057005;28;20021;-90
2021/10/22 00:42:03;;;;;;;20.35;3.28;;;;;;;;;;5039182;28;20021;-90
2021/10/22 00:44:28;;;;;;;15.65;2.47;;;;;;;;;;5038986;28;20025;-90
2021/10/22 00:46:54;;;;;;;11.02;2.33;;;;;;;;;;5038360;28;20496;-90
2021/10/22 00:49:21;;;;;;;22.35;2.95;;;;;;;;;;5036312;28;20032;-90
2021/10/22 00:51:47;;;;;;;16.17;2.80;;;;;;;;;;5035780;28;20021;-90
2021/10/22 00:54:12;;;;;;;13.35;2.28;;;;;;;;;;5053790;28;20398;-90
2021/10/22 00:56:38;;;;;;;13.30;2.60;;;;;;;;;;5035694;28;20039;-90
2021/10/22 00:59:06;;;;;;;20.75;3.55;;;;;;;;;;5035573;28;20025;-90
2021/10/22 01:01:38;;;;;;;18.20;2.65;;;;;;;;;;5053776;28;20725;-90
2021/10/22 01:04:03;;;;;;;11.18;2.28;;;;;;;;;;5053619;28;20497;-90
2021/10/22 01:06:28;;;;;;;20.20;2.80;;;;;;;;;;5035513;28;20029;-89
2021/10/22 01:08:54;;;;;;;12.60;2.10;;;;;;;;;;5035436;28;20112;-90
2021/10/22 01:11:19;;;;;;;23.83;3.05;;;;;;;;;;5035438;28;20025;-89
2021/10/22 01:13:45;;;;;;;17.65;2.50;;;;;;;;;;5035525;28;20031;-90
2021/10/22 01:16:10;;;;;;;14.68;2.78;;;;;;;;;;5035765;28;20025;-90
2021/10/22 01:18:35;;;;;;;11.60;2.20;;;;;;;;;;5053389;28;20362;-90
2021/10/22 01:21:04;;;;;;;17.38;3.00;;;;;;;;;;5035587;28;20060;-90
2021/10/22 01:23:30;;;;;;;14.27;2.65;;;;;;;;;;5035477;28;20040;-90
2021/10/22 01:25:55;;;;;;;18.05;2.47;;;;;;;;;;5035242;28;20472;-90
2021/10/22 01:28:20;;;;;;;26.42;3.03;;;;;;;;;;5053475;28;20522;-90
2021/10/22 01:30:47;;;;;;;15.65;2.88;;;;;;;;;;5035319;28;20013;-90
2021/10/22 01:33:12;;;;;;;10.00;2.00;;;;;;;;;;5053371;28;20790;-90
2021/10/22 01:35:37;;;;;;;15.02;2.28;;;;;;;;;;5035099;28;20025;-90
2021/10/22 01:38:02;;;;;;;14.00;2.50;;;;;;;;;;5034823;28;20098;-90
2021/10/22 01:40:28;;;;;;;14.68;2.55;;;;;;;;;;5034787;28;20036;-89
2021/10/22 01:42:53;;;;;;;14.63;2.75;;;;;;;;;;5035128;28;20021;-90
2021/10/22 01:45:19;;;;;;;23.63;3.70;;;;;;;;;;5034910;28;20029;-90
2021/10/22 01:47:44;;;;;;;16.95;2.03;;;;;;;;;;5034797;28;20048;-90
2021/10/22 01:50:09;;;;;;;15.50;2.10;;;;;;;;;;5035013;28;20484;-89
2021/10/22 01:52:34;;;;;;;14.38;2.92;;;;;;;;;;5035054;28;20271;-90
2021/10/22 01:55:00;;;;;;;17.65;2.75;;;;;;;;;;5034847;28;20111;-90
2021/10/22 01:57:25;;;;;;;16.98;3.30;;;;;;;;;;5052824;28;20434;-90
2021/10/22 01:59:51;;;;;;;14.38;2.20;;;;;;;;;;5034764;28;20053;-90
2021/10/22 02:02:16;;;;;;;12.85;2.65;;;;;;;;;;5034910;28;20024;-89
2021/10/22 02:04:41;;;;;;;14.75;2.05;;;;;;;;;;5034572;28;20043;-90
2021/10/22 02:07:06;;;;;;;23.50;2.63;;;;;;;;;;5034750;28;20024;-90
2021/10/22 02:09:32;;;;;;;13.73;2.70;;;;;;;;;;5034435;28;20017;-89
2021/10/22 02:11:57;;;;;;;21.02;2.90;;;;;;;;;;5034309;28;20131;-90
2021/10/22 02:14:22;;;;;;;12.53;2.80;;;;;;;;;;5034501;28;20051;-90
2021/10/22 02:16:48;;;;;;;22.25;4.75;;;;;;;;;;5052472;28;20295;-90
2021/10/22 02:19:13;;;;;;;13.98;2.53;;;;;;;;;;5034024;28;20017;-90
2021/10/22 02:21:39;;;;;;;17.15;2.08;;;;;;;;;;5034046;28;20578;-90
2021/10/22 02:24:05;;;;;;;11.18;2.28;;;;;;;;;;5052285;28;20051;-90
2021/10/22 02:26:30;;;;;;;11.88;1.95;;;;;;;;;;5034250;28;20031;-90
2021/10/22 02:28:55;;;;;;;8.55;1.70;;;;;;;;;;5034331;28;20404;-90
2021/10/22 02:31:20;;;;;;;12.82;2.40;;;;;;;;;;5034271;28;20536;-90
2021/10/22 02:33:46;;;;;;;13.32;1.77;;;;;;;;;;5033954;28;20025;-90
2021/10/22 02:36:12;;;;;;;10.85;1.85;;;;;;;;;;5033995;28;20028;-90
2021/10/22 02:38:37;;;;;;;17.73;2.13;;;;;;;;;;5052055;28;20040;-90
2021/10/22 02:41:03;;;;;;;11.10;1.65;;;;;;;;;;5051789;28;20040;-90
2021/10/22 02:43:28;;;;;;;15.00;2.55;;;;;;;;;;5034189;28;20759;-90
2021/10/22 02:45:53;;;;;;;9.80;2.35;;;;;;;;;;5051625;28;20024;-89
2021/10/22 02:48:18;;;;;;;10.70;1.40;;;;;;;;;;5051786;28;20250;-90
2021/10/22 02:50:44;;;;;;;9.20;1.60;;;;;;;;;;5033523;28;20009;-90
2021/10/22 02:53:09;;;;;;;8.75;1.95;;;;;;;;;;5051958;28;20530;-90
2021/10/22 02:55:34;;;;;;;9.35;3.30;;;;;;;;;;5033741;28;20024;-90
2021/10/22 02:57:59;;;;;;;9.83;2.20;;;;;;;;;;5051643;28;20025;-91
2021/10/22 03:00:25;;;;;;;9.63;1.52;;;;;;;;;;5033664;28;20303;-90
2021/10/22 03:02:50;;;;;;;11.73;2.25;;;;;;;;;;5033712;28;20023;-90
2021/10/22 03:05:15;;;;;;;11.48;1.58;;;;;;;;;;5033929;28;20487;-90
2021/10/22 03:07:40;;;;;;;8.68;1.50;;;;;;;;;;5033508;28;20494;-89
2021/10/22 03:10:07;;;;;;;10.23;1.88;;;;;;;;;;5033332;28;20436;-90
2021/10/22 03:12:33;;;;;;;10.77;1.52;;;;;;;;;;5033101;28;20057;-90
2021/10/22 03:14:58;;;;;;;6.68;2.22;;;;;;;;;;5051603;28;20501;-90
2021/10/22 03:17:23;;;;;;;14.00;2.30;;;;;;;;;;5033546;28;20033;-90
2021/10/22 03:19:48;;;;;;;6.72;1.73;;;;;;;;;;5033160;28;20037;-90
2021/10/22 03:22:15;;;;;;;44.20;2.60;;;;;;;;;;5033458;28;20070;-90
2021/10/22 03:24:40;;;;;;;11.38;1.80;;;;;;;;;;5051393;28;20560;-90
2021/10/22 03:27:10;;;;;;;10.18;2.00;;;;;;;;;;5033727;28;20115;-91
2021/10/22 03:29:35;;;;;;;16.55;2.20;;;;;;;;;;5033475;28;20495;-90
2021/10/22 03:32:01;;;;;;;12.18;1.88;;;;;;;;;;5033749;28;20028;-90
2021/10/22 03:34:26;;;;;;;17.80;2.42;;;;;;;;;;5032473;28;20052;-90
2021/10/22 03:36:51;;;;;;;17.23;2.38;;;;;;;;;;5033034;28;20029;-89
2021/10/22 03:39:16;;;;;;;15.47;2.40;;;;;;;;;;5032591;28;20017;-89
2021/10/22 03:41:41;;;;;;;10.68;1.92;;;;;;;;;;5032796;28;20608;-89
2021/10/22 03:44:07;;;;;;;14.33;2.53;;;;;;;;;;5032543;28;20035;-90
2021/10/22 03:46:32;;;;;;;16.08;2.55;;;;;;;;;;5050539;28;20260;-89
2021/10/22 03:48:57;;;;;;;16.90;2.55;;;;;;;;;;5032761;28;20059;-89
2021/10/22 03:51:22;;;;;;;17.65;2.70;;;;;;;;;;5050805;28;20036;-89
2021/10/22 03:53:48;;;;;;;17.33;2.30;;;;;;;;;;5032678;28;20056;-89
2021/10/22 03:56:13;;;;;;;20.98;2.47;;;;;;;;;;5050577;28;20282;-89
2021/10/22 03:58:38;;;;;;;19.55;3.40;;;;;;;;;;5032597;28;20020;-89
2021/10/22 04:01:03;;;;;;;16.37;2.67;;;;;;;;;;5032360;28;20036;-89
2021/10/22 04:03:29;;;;;;;63.13;4.00;;;;;;;;;;5032698;28;20306;-89
2021/10/22 04:05:54;;;;;;;22.85;3.40;;;;;;;;;;5033281;28;20484;-89
2021/10/22 04:08:20;;;;;;;37.13;3.87;;;;;;;;;;5032841;28;20036;-89
2021/10/22 04:10:45;;;;;;;23.02;3.75;;;;;;;;;;5050550;28;20252;-89
2021/10/22 04:13:11;;;;;;;24.23;3.95;;;;;;;;;;5031998;28;20059;-90
2021/10/22 04:15:36;;;;;;;29.55;2.78;;;;;;;;;;5032649;28;20019;-89
2021/10/22 04:18:01;;;;;;;26.38;4.13;;;;;;;;;;5032409;28;20044;-89
2021/10/22 04:20:27;;;;;;;23.87;4.03;;;;;;;;;;5032185;28;20480;-89
2021/10/22 04:22:52;;;;;;;33.03;5.17;;;;;;;;;;5050279;28;20278;-89
2021/10/22 04:25:17;;;;;;;27.75;3.20;;;;;;;;;;5050126;28;20259;-90
2021/10/22 04:27:42;;;;;;;25.50;3.55;;;;;;;;;;5032307;28;20028;-90
2021/10/22 04:30:08;;;;;;;22.47;3.43;;;;;;;;;;5032075;28;20369;-90
2021/10/22 04:32:33;;;;;;;29.38;3.47;;;;;;;;;;5050272;28;20313;-90
2021/10/22 04:34:59;;;;;;;33.72;3.95;;;;;;;;;;5033542;28;20029;-90
2021/10/22 04:42:45;;;;;;;19.95;2.45;;;;;;;;;;5050200;28;20043;-89
2021/10/22 04:45:11;;;;;;;13.02;2.45;;;;;;;;;;5032303;28;20093;-90
2021/10/22 04:47:39;;;;;;;16.80;3.22;;;;;;;;;;5035751;28;20100;-90
2021/10/22 04:50:09;;;;;;;13.10;2.38;;;;;;;;;;5035784;28;20025;-90
2021/10/22 04:52:37;;;;;;;21.88;2.67;;;;;;;;;;5017962;28;20092;-89
2021/10/22 04:55:05;;;;;;;13.35;2.00;;;;;;;;;;5015209;28;20029;-90
2021/10/22 04:57:34;;;;;;;14.27;3.42;;;;;;;;;;5015534;28;20913;-89
2021/10/22 05:00:03;;;;;;;16.13;2.80;;;;;;;;;;5013825;28;20049;-90
2021/10/22 05:02:28;;;;;;;10.50;2.60;;;;;;;;;;5033573;28;20030;-89
2021/10/22 05:04:56;;;;;;;21.83;2.95;;;;;;;;;;5015303;28;20029;-89
2021/10/22 05:07:29;;;;;;;23.05;2.65;;;;;;;;;;5014927;28;20172;-90
2021/10/22 05:09:58;;;;;;;20.33;3.45;;;;;;;;;;5013780;28;20021;-90
2021/10/22 05:12:24;;;;;;;14.70;2.88;;;;;;;;;;5014937;28;20806;-89
2021/10/22 05:19:48;;;;;;;22.40;3.28;;;;;;;;;;1214441;22;20221;-85
2021/10/22 05:22:14;;;;;;;19.20;3.22;;;;;;;;;;5025763;28;20140;-89
2021/10/22 05:24:42;;;;;;;24.70;3.92;;;;;;;;;;4997106;28;20040;-89
2021/10/22 05:30:12;;;;;;;17.92;3.25;;;;;;;;;;5014874;28;20036;-89
2021/10/22 05:32:37;;;;;;;23.85;4.10;;;;;;;;;;5015041;28;20018;-89
2021/10/22 05:35:04;;;;;;;32.88;4.43;;;;;;;;;;5015167;28;20396;-89
2021/10/22 05:37:32;;;;;;;23.05;3.72;;;;;;;;;;5058602;22;20061;-89
2021/10/22 05:40:00;;;;;;;34.22;3.78;;;;;;;;;;5034393;28;20725;-89
2021/10/22 05:42:30;;;;;;;25.60;2.90;;;;;;;;;;5033038;28;20471;-89
2021/10/22 05:47:39;;;;;;;16.50;2.97;;;;;;;;;;5028191;28;20053;-89
2021/10/22 05:50:05;;;;;;;47.40;4.05;;;;;;;;;;5013911;28;20037;-89
2021/10/22 05:52:30;;;;;;;16.83;2.50;;;;;;;;;;5056247;22;20103;-90
2021/10/22 05:57:23;;;;;;;23.25;2.70;;;;;;;;;;5107168;22;20048;-89
2021/10/22 05:59:48;;;;;;;18.65;3.03;;;;;;;;;;5060918;23;20057;-90
2021/10/22 06:02:13;;;;;;;23.23;2.70;;;;;;;;;;5031507;28;20484;-89
2021/10/22 06:04:42;;;;;;;20.88;2.85;;;;;;;;;;5033573;28;20056;-89
2021/10/22 06:07:07;;;;;;;25.13;3.58;;;;;;;;;;5030562;28;20128;-89
2021/10/22 06:12:08;;;;;;;16.95;3.25;;;;;;;;;;5028598;28;20084;-89
2021/10/22 06:19:45;;;;;;;29.27;2.97;;;;;;;;;;5028534;28;20513;-89
2021/10/22 06:37:33;;;;;;;27.65;2.40;;;;;;;;;;5098469;22;20516;-90
2021/10/22 06:40:03;;;;;;;15.80;2.25;;;;;;;;;;5031960;23;20157;-89
2021/10/22 06:42:45;;;;;;;23.33;3.30;;;;;;;;;;4985532;28;20101;-89
2021/10/22 06:45:10;;;;;;;30.60;5.00;;;;;;;;;;5029166;28;20022;-88
2021/10/22 06:47:36;;;;;;;15.07;2.40;;;;;;;;;;5013553;28;20040;-89
2021/10/22 06:50:01;;;;;;;20.08;3.17;;;;;;;;;;5031637;28;20033;-88
2021/10/22 06:52:33;;;;;;;22.23;3.08;;;;;;;;;;5013682;28;20102;-88
2021/10/22 06:54:58;;;;;;;;;;;;;;;;;;5022861;28;20032;-89
2021/10/22 06:57:24;;;;;;;30.38;4.28;;;;;;;;;;5013276;28;19909;-89
2021/10/22 06:59:49;;;;;;;25.70;4.72;;;;;;;;;;5046387;28;20074;-88
2021/10/22 07:02:17;;;;;;;27.65;5.07;;;;;;;;;;5053422;28;20024;-89
2021/10/22 07:04:49;;;;;;;26.95;3.17;;;;;;;;;;5052716;28;20027;-88
2021/10/22 07:07:17;;;;;;;42.38;4.30;;;;;;;;;;5052489;28;20077;-89
2021/10/22 07:09:44;;;;;;;24.45;3.15;;;;;;;;;;5052812;28;20032;-89
2021/10/22 07:12:10;;;;;;;32.50;4.40;;;;;;;;;;5052817;28;20510;-89
2021/10/22 07:14:37;;;;;;;49.53;5.18;;;;;;;;;;5050812;28;20456;-89
2021/10/22 07:17:05;;;;;;;35.92;3.45;;;;;;;;;;5051003;28;20046;-88
2021/10/22 07:19:37;;;;;;;37.38;4.25;;;;;;;;;;5051232;28;20020;-89
2021/10/22 07:22:12;;;;;;;30.33;4.50;;;;;;;;;;5051932;28;20713;-89
2021/10/22 07:24:38;;;;;;;23.73;3.83;;;;;;;;;;5050751;28;20118;-89
2021/10/22 07:27:03;;;;;;;36.45;4.07;;;;;;;;;;5036662;28;20536;-89
2021/10/22 07:29:29;;;;;;;34.50;3.78;;;;;;;;;;5012699;28;20034;-90
2021/10/22 07:31:55;;;;;;;30.80;4.72;;;;;;;;;;5013043;28;20473;-89
2021/10/22 07:34:23;;;;;;;18.83;2.88;;;;;;;;;;5041436;23;20057;-89
2021/10/22 07:36:52;;;;;;;30.42;3.95;;;;;;;;;;5010778;28;20060;-88
2021/10/22 07:39:19;;;;;;;23.35;4.00;;;;;;;;;;5012707;28;20057;-89
2021/10/22 07:41:49;;;;;;;22.48;3.15;;;;;;;;;;5010840;28;20132;-89
2021/10/22 07:44:18;;;;;;;28.52;3.78;;;;;;;;;;5011123;28;20036;-89
2021/10/22 07:46:45;;;;;;;21.30;3.33;;;;;;;;;;5004684;28;20389;-89
2021/10/22 07:49:11;;;;;;;19.35;2.97;;;;;;;;;;5012364;28;20021;-89
2021/10/22 07:51:36;;;;;;;24.27;2.95;;;;;;;;;;5012463;28;20036;-89
2021/10/22 07:54:02;;;;;;;18.20;2.72;;;;;;;;;;5012763;28;20071;-90
2021/10/22 07:56:29;;;;;;;29.33;4.00;;;;;;;;;;5012047;28;20539;-89
2021/10/22 07:58:57;;;;;;;30.10;3.53;;;;;;;;;;5009899;28;20026;-89
2021/10/22 08:01:23;;;;;;;23.65;3.88;;;;;;;;;;5010142;28;20061;-89
2021/10/22 08:03:50;;;;;;;24.55;3.20;;;;;;;;;;5012735;28;20492;-89
2021/10/22 08:06:16;;;;;;;16.80;2.60;;;;;;;;;;5012374;28;20105;-88
2021/10/22 08:08:42;;;;;;;26.45;3.92;;;;;;;;;;5012530;28;20525;-88
2021/10/22 08:11:07;;;;;;;28.27;4.03;;;;;;;;;;5012805;28;20116;-89
2021/10/22 08:13:33;;;;;;;29.80;3.35;;;;;;;;;;5012575;28;20128;-88
2021/10/22 08:15:58;;;;;;;25.17;4.05;;;;;;;;;;5028357;28;20068;-88
2021/10/22 08:18:29;;;;;;;26.90;3.92;;;;;;;;;;5009909;28;20017;-89
2021/10/22 08:21:00;;;;;;;20.13;3.30;;;;;;;;;;5012598;28;20033;-89
2021/10/22 08:23:30;;;;;;;23.88;2.35;;;;;;;;;;5076663;23;20048;-90
2021/10/22 08:25:57;;;;;;;34.55;4.13;;;;;;;;;;5043493;23;20075;-89
2021/10/22 08:30:59;;;;;;;16.13;2.97;;;;;;;;;;5062522;22;20789;-89
2021/10/22 08:33:26;;;;;;;22.55;3.00;;;;;;;;;;5035113;28;20464;-89
2021/10/22 08:35:52;;;;;;;22.58;2.47;;;;;;;;;;5052404;28;20021;-89
2021/10/22 08:38:21;;;;;;;16.60;3.17;;;;;;;;;;5034945;28;20032;-89
2021/10/22 08:40:47;;;;;;;21.58;2.88;;;;;;;;;;5034094;28;20238;-89
2021/10/22 08:43:13;;;;;;;10.90;2.28;;;;;;;;;;5053610;28;20186;-89
2021/10/22 08:45:39;;;;;;;14.02;3.00;;;;;;;;;;5035328;28;20083;-89
2021/10/22 08:48:11;;;;;;;13.50;2.33;;;;;;;;;;5035111;28;20021;-89
2021/10/22 08:50:40;;;;;;;13.88;2.33;;;;;;;;;;5033919;28;20039;-89
2021/10/22 08:53:15;;;;;;;20.75;2.95;;;;;;;;;;5035263;28;20017;-89
2021/10/22 08:55:47;;;;;;;13.43;1.98;;;;;;;;;;5059904;22;20060;-88
2021/10/22 08:58:17;;;;;;;16.13;3.35;;;;;;;;;;5014769;28;20049;-89
2021/10/22 09:00:44;;;;;;;13.43;2.63;;;;;;;;;;5012659;28;20029;-89
2021/10/22 09:03:10;;;;;;;19.23;4.55;;;;;;;;;;5015525;28;20028;-89
2021/10/22 09:05:36;;;;;;;24.08;2.90;;;;;;;;;;5014878;28;20021;-89
2021/10/22 09:08:05;;;;;;;14.85;2.13;;;;;;;;;;5019137;28;20025;-88
2021/10/22 09:10:33;;;;;;;16.85;2.70;;;;;;;;;;5015181;28;20045;-88
2021/10/22 09:13:07;;;;;;;14.85;2.83;;;;;;;;;;5012130;28;20029;-88
2021/10/22 09:18:13;;;;;;;7.95;1.85;;;;;;;;;;5028429;28;20049;-89
2021/10/22 09:20:52;;;;;;;7.88;1.48;;;;;;;;;;5014696;28;20397;-89
2021/10/22 09:23:25;;;;;;;5.63;1.20;;;;;;;;;;5056421;22;20135;-89
2021/10/22 09:25:53;;;;;;;4.50;1.02;;;;;;;;;;5030136;28;20041;-89
2021/10/22 09:28:24;;;;;;;4.45;0.90;;;;;;;;;;5052016;28;20021;-89
2021/10/22 09:30:50;;;;;;;5.57;1.08;;;;;;;;;;5034508;28;20033;-89
2021/10/22 09:33:18;;;;;;;5.57;0.80;;;;;;;;;;5033760;28;20550;-89
2021/10/22 09:35:55;;;;;;;4.63;1.10;;;;;;;;;;5052556;28;20092;-88
2021/10/22 09:38:25;;;;;;;2.70;1.00;;;;;;;;;;5034301;28;20029;-89
2021/10/22 09:41:04;;;;;;;3.70;1.00;;;;;;;;;;5014698;28;20061;-89
2021/10/22 09:46:24;;;;;;;4.47;1.23;;;;;;;;;;5010565;28;20079;-89
2021/10/22 09:48:57;;;;;;;7.18;1.30;;;;;;;;;;5030862;23;20080;-89
2021/10/22 09:51:28;;;;;;;5.53;1.20;;;;;;;;;;5031413;28;20062;-89
2021/10/22 09:53:55;;;;;;;6.05;1.60;;;;;;;;;;5032717;28;20141;-89
2021/10/22 09:56:43;;;;;;;4.40;1.40;;;;;;;;;;5023685;28;20041;-89
2021/10/22 09:59:10;;;;;;;5.22;1.13;;;;;;;;;;5019806;28;20021;-89
2021/10/22 10:01:39;;;;;;;10.02;1.75;;;;;;;;;;5026798;28;20072;-89
2021/10/22 10:04:06;;;;;;;4.20;1.45;;;;;;;;;;5043208;28;20033;-89
2021/10/22 10:06:32;;;;;;;6.10;1.73;;;;;;;;;;5043519;28;20032;-89
2021/10/22 10:09:02;;;;;;;6.88;1.40;;;;;;;;;;5057440;28;20145;-90
2021/10/22 10:11:40;;;;;;;6.45;1.35;;;;;;;;;;5077918;22;20111;-89
2021/10/22 10:14:08;;;;;;;15.48;1.80;;;;;;;;;;5032004;28;20044;-89
2021/10/22 10:16:34;;;;;;;16.05;1.63;;;;;;;;;;5035509;28;20392;-89
2021/10/22 10:24:12;;;;;;;15.55;2.38;;;;;;;;;;5053808;28;20049;-90
2021/10/22 10:26:37;;;;;;;9.40;1.35;;;;;;;;;;5056816;28;20024;-92
2021/10/22 10:29:04;;;;;;;3.53;1.20;;;;;;;;;;5050954;28;20023;-89
2021/10/22 10:31:38;;;;;;;3.22;1.00;;;;;;;;;;5053309;28;20127;-88
2021/10/22 10:34:22;;;;;;;3.80;1.20;;;;;;;;;;5053511;28;20070;-89
2021/10/22 10:36:52;;;;;;;6.22;1.13;;;;;;;;;;5053380;28;20105;-88
2021/10/22 10:39:36;;;;;;;3.45;0.95;;;;;;;;;;5053161;28;20488;-88
2021/10/22 10:42:18;;;;;;;1.98;0.80;;;;;;;;;;5053395;28;20174;-88
2021/10/22 10:44:44;;;;;;;1.38;0.88;;;;;;;;;;5052786;28;20020;-89
2021/10/22 10:47:33;;;;;;;3.17;1.13;;;;;;;;;;5053364;28;20345;-89
2021/10/22 10:49:59;;;;;;;4.85;1.27;;;;;;;;;;5045121;28;20029;-89
2021/10/22 10:52:37;;;;;;;3.53;1.30;;;;;;;;;;5052483;28;20020;-88
2021/10/22 10:55:27;;;;;;;5.15;1.45;;;;;;;;;;5053360;28;20039;-88
2021/10/22 10:58:07;;;;;;;7.22;1.70;;;;;;;;;;5053187;28;20035;-89
2021/10/22 11:00:33;;;;;;;3.97;1.20;;;;;;;;;;5052614;28;20036;-88
2021/10/22 11:03:02;;;;;;;12.00;1.75;;;;;;;;;;5052939;28;20059;-88
2021/10/22 11:05:46;;;;;;;5.13;1.27;;;;;;;;;;5052829;28;20024;-89
2021/10/22 11:08:16;;;;;;;6.32;0.98;;;;;;;;;;5052943;28;20035;-89
2021/10/22 11:11:01;;;;;;;2.50;0.90;;;;;;;;;;5052802;28;20477;-89
2021/10/22 11:13:41;;;;;;;5.00;1.30;;;;;;;;;;5053073;28;20097;-89
2021/10/22 11:16:08;;;;;;;3.42;1.10;;;;;;;;;;5052544;28;20109;-89
2021/10/22 11:18:36;;;;;;;4.95;0.90;;;;;;;;;;5052628;28;20024;-89
2021/10/22 11:21:03;;;;;;;2.90;0.93;;;;;;;;;;5052190;28;20086;-89
2021/10/22 11:23:28;;;;;;;3.00;0.80;;;;;;;;;;5052893;28;20045;-89
2021/10/22 11:25:56;;;;;;;2.65;1.00;;;;;;;;;;5052307;28;20513;-89
2021/10/22 11:28:31;;;;;;;2.83;1.00;;;;;;;;;;5052183;28;20483;-89
2021/10/22 11:30:57;;;;;;;3.22;1.02;;;;;;;;;;5052592;28;20033;-89
2021/10/22 11:33:24;;;;;;;1.63;1.08;;;;;;;;;;5051379;28;20021;-89
2021/10/22 11:35:50;;;;;;;3.40;1.00;;;;;;;;;;5052598;28;20480;-89
2021/10/22 11:38:23;;;;;;;3.03;1.00;;;;;;;;;;5057517;28;20031;-89
2021/10/22 11:40:48;;;;;;;4.85;1.30;;;;;;;;;;5052262;28;20062;-89
2021/10/22 11:43:14;;;;;;;4.30;0.93;;;;;;;;;;5052387;28;20020;-89
2021/10/22 11:45:41;;;;;;;4.50;1.15;;;;;;;;;;5052279;28;20020;-89
2021/10/22 11:48:06;;;;;;;3.33;1.00;;;;;;;;;;5052079;28;20024;-89
2021/10/22 11:50:34;;;;;;;3.65;1.17;;;;;;;;;;5052299;28;20070;-89
2021/10/22 11:53:13;;;;;;;4.90;1.00;;;;;;;;;;5052177;28;20051;-89
2021/10/22 11:55:39;;;;;;;4.95;0.90;;;;;;;;;;5042323;28;20476;-89
2021/10/22 11:58:11;;;;;;;3.92;1.10;;;;;;;;;;5031996;28;20029;-89
2021/10/22 12:00:36;;;;;;;;;;;;;;;;;;5050310;28;20030;-89
2021/10/22 12:03:01;;;;;;;6.93;1.97;;;;;;;;;;5065586;28;19954;-89
2021/10/22 12:05:28;;;;;;;6.35;1.42;;;;;;;;;;5026741;28;20899;-89
2021/10/22 12:07:58;;;;;;;3.50;1.02;;;;;;;;;;5028271;28;20031;-89
2021/10/22 12:10:23;;;;;;;9.68;1.90;;;;;;;;;;5033826;28;20111;-89
2021/10/22 12:12:51;;;;;;;7.32;1.50;;;;;;;;;;5032545;28;20103;-88
2021/10/22 12:15:24;;;;;;;7.97;1.30;;;;;;;;;;5031936;28;20056;-89
2021/10/22 12:17:53;;;;;;;7.07;1.20;;;;;;;;;;5031643;28;20428;-88
2021/10/22 12:20:19;;;;;;;6.38;1.30;;;;;;;;;;5031897;28;20036;-88
2021/10/22 12:22:48;;;;;;;4.68;1.30;;;;;;;;;;5028504;28;20815;-89
2021/10/22 12:25:21;;;;;;;7.28;1.80;;;;;;;;;;5012401;28;20026;-88
2021/10/22 12:27:50;;;;;;;9.40;1.50;;;;;;;;;;5011846;28;20030;-89
2021/10/22 12:30:17;;;;;;;6.47;2.10;;;;;;;;;;5011818;28;20041;-89
2021/10/22 12:32:44;;;;;;;5.28;1.80;;;;;;;;;;5012839;28;20028;-88
2021/10/22 12:35:19;;;;;;;7.68;2.13;;;;;;;;;;5021626;28;20095;-89
2021/10/22 12:38:05;;;;;;;5.15;4.68;;;;;;;;;;5011680;28;20044;-89
2021/10/22 12:40:53;;;;;;;6.35;2.65;;;;;;;;;;5038132;23;20140;-89
2021/10/22 12:43:25;;;;;;;5.03;2.15;;;;;;;;;;5031650;28;20040;-89
2021/10/22 12:45:50;;;;;;;;;;;;;;;;;;5032219;28;20027;-89
2021/10/22 12:48:17;;;;;;;10.02;2.22;;;;;;;;;;5029688;28;19909;-89
2021/10/22 12:50:43;;;;;;;4.07;1.23;;;;;;;;;;5030329;28;20120;-89
2021/10/22 12:53:13;;;;;;;6.53;1.10;;;;;;;;;;5037987;22;20103;-89
2021/10/22 12:55:38;;;;;;;5.55;2.70;;;;;;;;;;5034816;28;20024;-89
2021/10/22 12:58:14;;;;;;;8.07;2.00;;;;;;;;;;5032053;28;20017;-89
2021/10/22 13:00:40;;;;;;;7.75;1.60;;;;;;;;;;5031513;28;20033;-89
2021/10/22 13:03:05;;;;;;;10.25;1.30;;;;;;;;;;5031488;28;20476;-89
2021/10/22 13:05:32;;;;;;;9.98;1.80;;;;;;;;;;5019835;28;20064;-89
2021/10/22 13:08:01;;;;;;;14.40;1.58;;;;;;;;;;5015693;28;20033;-89
2021/10/22 13:10:50;;;;;;;5.28;1.60;;;;;;;;;;5015285;28;20535;-89
2021/10/22 13:21:27;;;;;;;17.90;1.70;;;;;;;;;;5053167;28;20146;-89
2021/10/22 13:23:52;;;;;;;5.90;1.30;;;;;;;;;;5034824;28;20017;-89
2021/10/22 13:26:17;;;;;;;5.43;1.67;;;;;;;;;;5034897;28;20025;-89
2021/10/22 13:28:42;;;;;;;7.65;1.48;;;;;;;;;;5035031;28;20267;-89
2021/10/22 13:31:10;;;;;;;4.57;1.20;;;;;;;;;;5052879;28;20111;-89
2021/10/22 13:33:35;;;;;;;6.95;2.20;;;;;;;;;;5034491;28;20684;-89
2021/10/22 13:36:02;;;;;;;7.85;2.03;;;;;;;;;;5034970;28;20024;-90
2021/10/22 13:38:28;;;;;;;7.78;1.65;;;;;;;;;;5052599;28;20475;-89
2021/10/22 13:40:54;;;;;;;10.52;2.00;;;;;;;;;;5038790;28;20040;-90
2021/10/22 13:43:20;;;;;;;23.90;3.40;;;;;;;;;;5034290;28;20024;-89
2021/10/22 13:45:45;;;;;;;19.92;2.80;;;;;;;;;;5073500;22;20425;-89
2021/10/22 13:48:15;;;;;;;17.40;2.25;;;;;;;;;;5034323;28;20032;-90
2021/10/22 13:50:45;;;;;;;13.38;3.03;;;;;;;;;;5354120;22;20064;-89
2021/10/22 13:53:16;;;;;;;7.00;1.80;;;;;;;;;;5034126;28;20021;-89
2021/10/22 13:55:42;;;;;;;6.30;2.65;;;;;;;;;;5032643;28;20028;-89
2021/10/22 13:58:10;;;;;;;7.72;1.90;;;;;;;;;;5034572;28;20025;-90
2021/10/22 14:00:39;;;;;;;7.20;2.00;;;;;;;;;;5033338;28;20042;-89
2021/10/22 14:03:05;;;;;;;8.65;1.55;;;;;;;;;;5318031;22;20144;-90
2021/10/22 14:07:59;;;;;;;10.10;1.90;;;;;;;;;;5056032;22;20454;-90
2021/10/22 14:10:29;;;;;;;8.88;1.77;;;;;;;;;;5033782;28;20364;-90
2021/10/22 14:13:12;;;;;;;10.93;2.42;;;;;;;;;;5051907;22;20064;-90
2021/10/22 14:16:02;;;;;;;13.35;2.50;;;;;;;;;;5031220;28;20032;-89
2021/10/22 14:29:12;;;;;;;12.15;2.67;;;;;;;;;;5051761;28;20083;-89
2021/10/22 14:31:39;;;;;;;18.35;3.35;;;;;;;;;;5028745;28;20633;-89
2021/10/22 14:34:06;;;;;;;15.73;3.47;;;;;;;;;;5033315;28;20156;-89
2021/10/22 14:36:39;;;;;;;15.82;3.33;;;;;;;;;;5032454;28;20071;-89
2021/10/22 14:39:05;;;;;;;18.33;3.20;;;;;;;;;;5032759;28;20021;-89
2021/10/22 14:41:34;;;;;;;13.50;2.75;;;;;;;;;;5036274;28;20039;-89
2021/10/22 14:44:04;;;;;;;19.30;3.75;;;;;;;;;;5033625;28;20021;-89
2021/10/22 14:46:33;;;;;;;22.23;4.03;;;;;;;;;;5051516;28;20025;-89
2021/10/22 14:54:12;;;;;;;15.55;3.08;;;;;;;;;;5051141;28;20055;-89
2021/10/22 14:56:39;;;;;;;16.42;3.90;;;;;;;;;;5055652;22;20152;-89
2021/10/22 14:59:08;;;;;;;23.05;4.05;;;;;;;;;;5050083;28;20036;-90
2021/10/22 15:01:34;;;;;;;17.02;2.70;;;;;;;;;;5026459;28;20640;-89
2021/10/22 15:07:00;;;;;;;21.92;3.33;;;;;;;;;;4924754;29;20473;-89
2021/10/22 15:09:28;;;;;;;21.20;3.28;;;;;;;;;;5029978;23;20053;-89
2021/10/22 15:11:55;;;;;;;12.68;3.17;;;;;;;;;;5032694;28;20407;-89
2021/10/22 15:14:20;;;;;;;16.25;3.58;;;;;;;;;;5031663;28;20023;-89
2021/10/22 15:16:47;;;;;;;21.52;3.40;;;;;;;;;;5029889;28;20043;-89
2021/10/22 15:24:21;;;;;;;14.95;3.08;;;;;;;;;;5078865;23;20767;-89
2021/10/22 16:32:01;;;;;;;14.93;2.72;;;;;;;;;;4401346;22;20020;-89
2021/10/22 16:48:02;;;;;;;23.95;5.38;;;;;;;;;;5196191;22;20136;-89
2021/10/22 16:50:28;;;;;;;15.15;4.28;;;;;;;;;;5049483;23;20157;-90
2021/10/22 17:15:59;;;;;;;15.67;3.13;;;;;;;;;;2895562;22;20232;-88
2021/10/22 17:26:38;;;;;;;17.88;2.90;;;;;;;;;;4645857;22;20020;-88
2021/10/22 18:04:17;;;;;;;17.83;2.97;;;;;;;;;;5160293;22;20491;-88
2021/10/22 18:06:43;;;;;;;16.33;4.78;;;;;;;;;;5054985;22;20052;-88
2021/10/22 18:11:49;;;;;;;21.77;4.07;;;;;;;;;;5407549;22;20059;-88
2021/10/22 18:22:36;;;;;;;17.67;2.88;;;;;;;;;;5016305;28;20075;-88
2021/10/22 18:30:14;;;;;;;19.40;3.85;;;;;;;;;;5047711;28;20806;-89
2021/10/22 18:32:49;;;;;;;21.35;3.65;;;;;;;;;;5266515;22;20051;-89
2021/10/22 18:35:34;;;;;;;17.08;3.38;;;;;;;;;;5054314;23;20135;-88
2021/10/22 18:43:58;;;;;;;21.33;3.55;;;;;;;;;;2714769;22;20220;-89
2021/10/22 18:46:30;;;;;;;18.90;3.08;;;;;;;;;;4992214;28;20050;-89
2021/10/22 18:51:52;;;;;;;24.38;4.85;;;;;;;;;;4968182;28;20137;-88
2021/10/22 18:54:18;;;;;;;20.85;3.60;;;;;;;;;;5011580;28;20649;-87
2021/10/22 18:56:44;;;;;;;22.15;3.17;;;;;;;;;;5010494;28;20031;-88
2021/10/22 18:59:09;;;;;;;24.70;4.15;;;;;;;;;;4994133;28;20014;-88